sensor_id;sensor_type;location;lat;lon;timestamp;pressure;altitude;pressure_sealevel;temperature;humidity
44663;BME280;30381;52.754;18.258;2023-04-19T00:01:35;101474.61;;;5.65;100.00
44663;BME280;30381;52.754;18.258;2023-04-19T00:04:15;101471.90;;;5.61;100.00
44663;BME280;30381;52.754;18.258;2023-04-19T00:06:46;101457.30;;;5.56;100.00
44663;BME280;30381;52.754;18.258;2023-04-19T00:09:13;101453.09;;;5.51;100.00
44663;BME280;30381;52.754;18.258;2023-04-19T00:11:48;101455.67;;;5.47;100.00
44663;BME280;30381;52.754;18.258;2023-04-19T00:14:17;101454.77;;;5.41;100.00
44663;BME280;30381;52.754;18.258;2023-04-19T00:16:46;101458.32;;;5.37;100.00
44663;BME280;30381;52.754;18.258;2023-04-19T00:19:19;101455.82;;;5.34;100.00
44663;BME280;30381;52.754;18.258;2023-04-19T00:21:47;101458.46;;;5.31;100.00
44663;BME280;30381;52.754;18.258;2023-04-19T00:24:23;101458.79;;;5.29;100.00
44663;BME280;30381;52.754;18.258;2023-04-19T00:27:11;101458.17;;;5.26;100.00
44663;BME280;30381;52.754;18.258;2023-04-19T00:29:58;101457.09;;;5.23;100.00
44663;BME280;30381;52.754;18.258;2023-04-19T00:32:31;101454.67;;;5.21;100.00
44663;BME280;30381;52.754;18.258;2023-04-19T00:35:07;101460.90;;;5.19;100.00
44663;BME280;30381;52.754;18.258;2023-04-19T00:37:36;101460.54;;;5.17;100.00
44663;BME280;30381;52.754;18.258;2023-04-19T00:40:03;101461.55;;;5.13;100.00
44663;BME280;30381;52.754;18.258;2023-04-19T00:42:32;101459.48;;;5.09;100.00
44663;BME280;30381;52.754;18.258;2023-04-19T00:45:01;101451.08;;;5.05;100.00
44663;BME280;30381;52.754;18.258;2023-04-19T00:47:29;101447.35;;;5.01;100.00
44663;BME280;30381;52.754;18.258;2023-04-19T00:50:02;101443.55;;;4.99;100.00
44663;BME280;30381;52.754;18.258;2023-04-19T00:52:32;101440.15;;;4.96;100.00
44663;BME280;30381;52.754;18.258;2023-04-19T00:55:01;101438.66;;;4.93;100.00
44663;BME280;30381;52.754;18.258;2023-04-19T00:57:31;101428.10;;;4.90;100.00
44663;BME280;30381;52.754;18.258;2023-04-19T00:59:59;101426.96;;;4.89;100.00
44663;BME280;30381;52.754;18.258;2023-04-19T01:02:30;101426.95;;;4.88;100.00
44663;BME280;30381;52.754;18.258;2023-04-19T01:04:58;101424.42;;;4.85;100.00
44663;BME280;30381;52.754;18.258;2023-04-19T01:07:42;101422.95;;;4.83;100.00
44663;BME280;30381;52.754;18.258;2023-04-19T01:10:14;101423.48;;;4.78;100.00
44663;BME280;30381;52.754;18.258;2023-04-19T01:12:41;101419.98;;;4.74;100.00
44663;BME280;30381;52.754;18.258;2023-04-19T01:15:17;101419.75;;;4.70;100.00
44663;BME280;30381;52.754;18.258;2023-04-19T01:17:55;101420.65;;;4.66;100.00
44663;BME280;30381;52.754;18.258;2023-04-19T01:20:24;101420.08;;;4.61;100.00
44663;BME280;30381;52.754;18.258;2023-04-19T01:22:54;101420.30;;;4.56;100.00
44663;BME280;30381;52.754;18.258;2023-04-19T01:25:44;101419.80;;;4.51;100.00
44663;BME280;30381;52.754;18.258;2023-04-19T01:28:20;101422.33;;;4.48;100.00
44663;BME280;30381;52.754;18.258;2023-04-19T01:30:49;101422.16;;;4.44;100.00
44663;BME280;30381;52.754;18.258;2023-04-19T01:33:22;101417.80;;;4.41;100.00
44663;BME280;30381;52.754;18.258;2023-04-19T01:35:52;101409.66;;;4.39;100.00
44663;BME280;30381;52.754;18.258;2023-04-19T01:38:22;101415.01;;;4.38;100.00
44663;BME280;30381;52.754;18.258;2023-04-19T01:40:56;101415.45;;;4.35;100.00
44663;BME280;30381;52.754;18.258;2023-04-19T01:43:27;101409.95;;;4.32;100.00
44663;BME280;30381;52.754;18.258;2023-04-19T01:45:55;101408.27;;;4.29;100.00
44663;BME280;30381;52.754;18.258;2023-04-19T01:48:33;101401.77;;;4.25;100.00
44663;BME280;30381;52.754;18.258;2023-04-19T01:51:00;101399.42;;;4.23;100.00
44663;BME280;30381;52.754;18.258;2023-04-19T01:53:31;101399.31;;;4.19;100.00
44663;BME280;30381;52.754;18.258;2023-04-19T01:55:59;101395.58;;;4.16;100.00
44663;BME280;30381;52.754;18.258;2023-04-19T01:58:31;101386.80;;;4.13;100.00
44663;BME280;30381;52.754;18.258;2023-04-19T02:01:05;101381.29;;;4.10;100.00
44663;BME280;30381;52.754;18.258;2023-04-19T02:03:38;101377.73;;;4.05;100.00
44663;BME280;30381;52.754;18.258;2023-04-19T02:06:11;101376.26;;;3.99;100.00
44663;BME280;30381;52.754;18.258;2023-04-19T02:08:40;101380.33;;;3.93;100.00
44663;BME280;30381;52.754;18.258;2023-04-19T02:11:12;101376.61;;;3.86;100.00
44663;BME280;30381;52.754;18.258;2023-04-19T02:13:46;101374.91;;;3.80;100.00
44663;BME280;30381;52.754;18.258;2023-04-19T02:16:19;101373.83;;;3.72;100.00
44663;BME280;30381;52.754;18.258;2023-04-19T02:18:47;101371.89;;;3.64;100.00
44663;BME280;30381;52.754;18.258;2023-04-19T02:21:48;101365.44;;;3.55;100.00
44663;BME280;30381;52.754;18.258;2023-04-19T02:24:23;101368.23;;;3.48;100.00
44663;BME280;30381;52.754;18.258;2023-04-19T02:26:59;101367.72;;;3.41;100.00
44663;BME280;30381;52.754;18.258;2023-04-19T02:29:38;101363.64;;;3.34;100.00
44663;BME280;30381;52.754;18.258;2023-04-19T02:32:05;101356.14;;;3.28;100.00
44663;BME280;30381;52.754;18.258;2023-04-19T02:34:37;101350.34;;;3.24;100.00
44663;BME280;30381;52.754;18.258;2023-04-19T02:37:21;101345.48;;;3.20;100.00
44663;BME280;30381;52.754;18.258;2023-04-19T02:39:54;101340.30;;;3.19;100.00
44663;BME280;30381;52.754;18.258;2023-04-19T02:42:34;101333.69;;;3.17;100.00
44663;BME280;30381;52.754;18.258;2023-04-19T02:45:12;101333.02;;;3.15;100.00
44663;BME280;30381;52.754;18.258;2023-04-19T02:47:40;101326.04;;;3.14;100.00
44663;BME280;30381;52.754;18.258;2023-04-19T02:50:08;101323.27;;;3.10;100.00
44663;BME280;30381;52.754;18.258;2023-04-19T02:52:56;101318.21;;;3.06;100.00
44663;BME280;30381;52.754;18.258;2023-04-19T02:55:31;101315.44;;;3.00;100.00
44663;BME280;30381;52.754;18.258;2023-04-19T02:57:59;101313.08;;;2.94;100.00
44663;BME280;30381;52.754;18.258;2023-04-19T03:00:27;101310.48;;;2.89;100.00
44663;BME280;30381;52.754;18.258;2023-04-19T03:02:55;101306.98;;;2.84;100.00
44663;BME280;30381;52.754;18.258;2023-04-19T03:05:24;101309.70;;;2.78;100.00
44663;BME280;30381;52.754;18.258;2023-04-19T03:07:51;101312.16;;;2.74;100.00
44663;BME280;30381;52.754;18.258;2023-04-19T03:10:18;101310.67;;;2.70;100.00
44663;BME280;30381;52.754;18.258;2023-04-19T03:12:44;101308.61;;;2.66;100.00
44663;BME280;30381;52.754;18.258;2023-04-19T03:15:10;101310.27;;;2.64;100.00
44663;BME280;30381;52.754;18.258;2023-04-19T03:17:38;101312.27;;;2.63;100.00
44663;BME280;30381;52.754;18.258;2023-04-19T03:20:13;101305.48;;;2.64;100.00
44663;BME280;30381;52.754;18.258;2023-04-19T03:22:42;101304.42;;;2.65;100.00
44663;BME280;30381;52.754;18.258;2023-04-19T03:25:13;101299.85;;;2.64;100.00
44663;BME280;30381;52.754;18.258;2023-04-19T03:27:43;101300.63;;;2.64;100.00
44663;BME280;30381;52.754;18.258;2023-04-19T03:30:15;101294.36;;;2.63;100.00
44663;BME280;30381;52.754;18.258;2023-04-19T03:32:48;101293.85;;;2.60;100.00
44663;BME280;30381;52.754;18.258;2023-04-19T03:35:18;101296.27;;;2.58;100.00
44663;BME280;30381;52.754;18.258;2023-04-19T03:37:49;101290.25;;;2.56;100.00
44663;BME280;30381;52.754;18.258;2023-04-19T03:40:17;101283.23;;;2.55;100.00
44663;BME280;30381;52.754;18.258;2023-04-19T03:42:49;101282.73;;;2.55;100.00
44663;BME280;30381;52.754;18.258;2023-04-19T03:45:18;101275.39;;;2.55;100.00
44663;BME280;30381;52.754;18.258;2023-04-19T03:47:45;101273.09;;;2.57;100.00
44663;BME280;30381;52.754;18.258;2023-04-19T03:50:12;101271.90;;;2.58;100.00
44663;BME280;30381;52.754;18.258;2023-04-19T03:52:42;101264.88;;;2.60;100.00
44663;BME280;30381;52.754;18.258;2023-04-19T03:55:30;101271.29;;;2.64;100.00
44663;BME280;30381;52.754;18.258;2023-04-19T03:58:17;101270.02;;;2.66;100.00
44663;BME280;30381;52.754;18.258;2023-04-19T04:00:51;101262.31;;;2.68;100.00
44663;BME280;30381;52.754;18.258;2023-04-19T04:03:29;101256.86;;;2.72;100.00
44663;BME280;30381;52.754;18.258;2023-04-19T04:05:58;101253.95;;;2.77;100.00
44663;BME280;30381;52.754;18.258;2023-04-19T04:08:28;101259.11;;;2.83;100.00
44663;BME280;30381;52.754;18.258;2023-04-19T04:10:57;101260.64;;;2.88;100.00
44663;BME280;30381;52.754;18.258;2023-04-19T04:13:28;101257.61;;;2.95;100.00
44663;BME280;30381;52.754;18.258;2023-04-19T04:15:56;101256.86;;;2.98;100.00
44663;BME280;30381;52.754;18.258;2023-04-19T04:18:40;101254.16;;;3.02;100.00
44663;BME280;30381;52.754;18.258;2023-04-19T04:21:08;101254.38;;;3.03;100.00
44663;BME280;30381;52.754;18.258;2023-04-19T04:23:36;101255.27;;;3.06;100.00
44663;BME280;30381;52.754;18.258;2023-04-19T04:26:19;101253.56;;;3.11;100.00
44663;BME280;30381;52.754;18.258;2023-04-19T04:34:28;101253.33;;;3.20;100.00
44663;BME280;30381;52.754;18.258;2023-04-19T04:40:06;101267.34;;;3.24;100.00
44663;BME280;30381;52.754;18.258;2023-04-19T04:42:35;101263.59;;;3.23;100.00
44663;BME280;30381;52.754;18.258;2023-04-19T04:45:02;101264.63;;;3.23;100.00
44663;BME280;30381;52.754;18.258;2023-04-19T04:47:35;101266.73;;;3.25;100.00
44663;BME280;30381;52.754;18.258;2023-04-19T04:50:05;101266.80;;;3.27;100.00
44663;BME280;30381;52.754;18.258;2023-04-19T04:52:32;101258.31;;;3.30;100.00
44663;BME280;30381;52.754;18.258;2023-04-19T04:54:58;101259.40;;;3.33;100.00
44663;BME280;30381;52.754;18.258;2023-04-19T04:57:24;101256.64;;;3.35;100.00
44663;BME280;30381;52.754;18.258;2023-04-19T04:59:52;101258.98;;;3.36;100.00
44663;BME280;30381;52.754;18.258;2023-04-19T05:02:18;101255.35;;;3.38;100.00
44663;BME280;30381;52.754;18.258;2023-04-19T05:04:45;101250.73;;;3.41;100.00
44663;BME280;30381;52.754;18.258;2023-04-19T05:07:14;101238.60;;;3.46;100.00
44663;BME280;30381;52.754;18.258;2023-04-19T05:09:44;101228.02;;;3.53;100.00
44663;BME280;30381;52.754;18.258;2023-04-19T05:12:16;101213.30;;;3.60;100.00
44663;BME280;30381;52.754;18.258;2023-04-19T05:14:43;101208.96;;;3.65;100.00
44663;BME280;30381;52.754;18.258;2023-04-19T05:17:14;101203.26;;;3.70;100.00
44663;BME280;30381;52.754;18.258;2023-04-19T05:19:50;101194.70;;;3.74;100.00
44663;BME280;30381;52.754;18.258;2023-04-19T05:22:22;101198.49;;;3.82;100.00
44663;BME280;30381;52.754;18.258;2023-04-19T05:24:56;101195.31;;;3.92;100.00
44663;BME280;30381;52.754;18.258;2023-04-19T05:27:43;101192.65;;;4.07;100.00
44663;BME280;30381;52.754;18.258;2023-04-19T05:32:59;101192.11;;;4.31;100.00
44663;BME280;30381;52.754;18.258;2023-04-19T05:35:26;101183.06;;;4.35;100.00
44663;BME280;30381;52.754;18.258;2023-04-19T05:38:33;101182.45;;;4.34;100.00
44663;BME280;30381;52.754;18.258;2023-04-19T05:46:31;101176.89;;;4.27;100.00
44663;BME280;30381;52.754;18.258;2023-04-19T05:48:57;101171.98;;;4.24;100.00
44663;BME280;30381;52.754;18.258;2023-04-19T05:51:36;101167.06;;;4.22;100.00
44663;BME280;30381;52.754;18.258;2023-04-19T05:54:28;101161.72;;;4.23;100.00
44663;BME280;30381;52.754;18.258;2023-04-19T05:57:01;101163.83;;;4.24;100.00
44663;BME280;30381;52.754;18.258;2023-04-19T05:59:31;101173.36;;;4.25;100.00
44663;BME280;30381;52.754;18.258;2023-04-19T06:02:00;101176.07;;;4.29;100.00
44663;BME280;30381;52.754;18.258;2023-04-19T06:04:27;101174.56;;;4.33;100.00
44663;BME280;30381;52.754;18.258;2023-04-19T06:06:58;101180.63;;;4.34;100.00
44663;BME280;30381;52.754;18.258;2023-04-19T06:09:25;101201.26;;;4.33;100.00
44663;BME280;30381;52.754;18.258;2023-04-19T06:17:26;101188.20;;;4.31;100.00
44663;BME280;30381;52.754;18.258;2023-04-19T06:19:53;101184.92;;;4.31;100.00
44663;BME280;30381;52.754;18.258;2023-04-19T06:22:22;101179.48;;;4.32;100.00
44663;BME280;30381;52.754;18.258;2023-04-19T06:30:39;101174.25;;;4.40;100.00
44663;BME280;30381;52.754;18.258;2023-04-19T06:33:06;101173.38;;;4.40;100.00
44663;BME280;30381;52.754;18.258;2023-04-19T06:35:45;101170.40;;;4.41;100.00
44663;BME280;30381;52.754;18.258;2023-04-19T06:38:18;101167.44;;;4.43;100.00
44663;BME280;30381;52.754;18.258;2023-04-19T06:40:53;101168.40;;;4.47;100.00
44663;BME280;30381;52.754;18.258;2023-04-19T06:43:20;101167.15;;;4.49;100.00
44663;BME280;30381;52.754;18.258;2023-04-19T06:46:01;101166.32;;;4.49;100.00
44663;BME280;30381;52.754;18.258;2023-04-19T06:48:28;101169.47;;;4.50;100.00
44663;BME280;30381;52.754;18.258;2023-04-19T06:50:54;101166.45;;;4.52;100.00
44663;BME280;30381;52.754;18.258;2023-04-19T06:53:22;101167.39;;;4.51;100.00
44663;BME280;30381;52.754;18.258;2023-04-19T06:55:58;101171.54;;;4.52;100.00
44663;BME280;30381;52.754;18.258;2023-04-19T06:58:27;101159.80;;;4.53;100.00
44663;BME280;30381;52.754;18.258;2023-04-19T07:00:54;101144.20;;;4.55;100.00
44663;BME280;30381;52.754;18.258;2023-04-19T07:03:21;101141.16;;;4.55;100.00
44663;BME280;30381;52.754;18.258;2023-04-19T07:05:47;101136.65;;;4.54;100.00
44663;BME280;30381;52.754;18.258;2023-04-19T07:08:14;101133.79;;;4.56;100.00
44663;BME280;30381;52.754;18.258;2023-04-19T07:10:41;101130.61;;;4.57;100.00
44663;BME280;30381;52.754;18.258;2023-04-19T07:13:11;101124.80;;;4.59;100.00
44663;BME280;30381;52.754;18.258;2023-04-19T07:15:41;101125.74;;;4.60;100.00
44663;BME280;30381;52.754;18.258;2023-04-19T07:18:08;101123.80;;;4.63;100.00
44663;BME280;30381;52.754;18.258;2023-04-19T07:20:35;101120.21;;;4.63;100.00
44663;BME280;30381;52.754;18.258;2023-04-19T07:23:11;101111.83;;;4.64;100.00
44663;BME280;30381;52.754;18.258;2023-04-19T07:25:40;101117.98;;;4.65;100.00
44663;BME280;30381;52.754;18.258;2023-04-19T07:28:07;101119.33;;;4.67;100.00
44663;BME280;30381;52.754;18.258;2023-04-19T07:42:30;101108.67;;;4.77;100.00
44663;BME280;30381;52.754;18.258;2023-04-19T07:45:16;101105.27;;;4.79;100.00
44663;BME280;30381;52.754;18.258;2023-04-19T07:47:50;101105.65;;;4.83;100.00
44663;BME280;30381;52.754;18.258;2023-04-19T07:50:50;101095.63;;;4.89;100.00
44663;BME280;30381;52.754;18.258;2023-04-19T08:04:59;101106.73;;;5.07;100.00
44663;BME280;30381;52.754;18.258;2023-04-19T08:07:35;101111.23;;;5.04;100.00
44663;BME280;30381;52.754;18.258;2023-04-19T08:10:11;101112.65;;;5.09;100.00
44663;BME280;30381;52.754;18.258;2023-04-19T08:12:46;101111.82;;;5.11;100.00
44663;BME280;30381;52.754;18.258;2023-04-19T08:15:13;101107.45;;;5.12;100.00
44663;BME280;30381;52.754;18.258;2023-04-19T08:17:49;101105.97;;;5.09;100.00
44663;BME280;30381;52.754;18.258;2023-04-19T08:20:18;101106.36;;;5.07;100.00
44663;BME280;30381;52.754;18.258;2023-04-19T08:25:44;101111.99;;;5.03;100.00
44663;BME280;30381;52.754;18.258;2023-04-19T08:28:10;101110.67;;;5.02;100.00
44663;BME280;30381;52.754;18.258;2023-04-19T08:30:42;101109.67;;;5.01;100.00
44663;BME280;30381;52.754;18.258;2023-04-19T08:33:19;101109.52;;;5.02;100.00
44663;BME280;30381;52.754;18.258;2023-04-19T08:39:24;101109.06;;;5.12;100.00
44663;BME280;30381;52.754;18.258;2023-04-19T08:42:11;101110.01;;;5.13;100.00
44663;BME280;30381;52.754;18.258;2023-04-19T08:44:48;101105.70;;;5.07;100.00
44663;BME280;30381;52.754;18.258;2023-04-19T08:47:40;101107.30;;;5.00;100.00
44663;BME280;30381;52.754;18.258;2023-04-19T08:50:44;101106.90;;;4.99;100.00
44663;BME280;30381;52.754;18.258;2023-04-19T08:53:34;101106.91;;;5.02;100.00
44663;BME280;30381;52.754;18.258;2023-04-19T08:59:28;101102.48;;;5.10;100.00
44663;BME280;30381;52.754;18.258;2023-04-19T09:02:15;101101.23;;;5.12;100.00
44663;BME280;30381;52.754;18.258;2023-04-19T09:05:11;101101.73;;;5.20;100.00
44663;BME280;30381;52.754;18.258;2023-04-19T09:07:38;101099.70;;;5.23;100.00
44663;BME280;30381;52.754;18.258;2023-04-19T09:10:10;101106.80;;;5.24;100.00
44663;BME280;30381;52.754;18.258;2023-04-19T09:12:37;101096.27;;;5.26;100.00
44663;BME280;30381;52.754;18.258;2023-04-19T09:15:06;101102.55;;;5.31;100.00
44663;BME280;30381;52.754;18.258;2023-04-19T09:17:37;101094.49;;;5.34;100.00
44663;BME280;30381;52.754;18.258;2023-04-19T09:20:06;101094.77;;;5.33;100.00
44663;BME280;30381;52.754;18.258;2023-04-19T09:22:33;101095.23;;;5.25;100.00
44663;BME280;30381;52.754;18.258;2023-04-19T09:25:24;101094.25;;;5.19;100.00
44663;BME280;30381;52.754;18.258;2023-04-19T09:28:13;101099.52;;;5.18;100.00
44663;BME280;30381;52.754;18.258;2023-04-19T09:30:40;101098.48;;;5.15;100.00
44663;BME280;30381;52.754;18.258;2023-04-19T09:33:08;101101.84;;;5.15;100.00
44663;BME280;30381;52.754;18.258;2023-04-19T09:35:49;101101.16;;;5.15;100.00
44663;BME280;30381;52.754;18.258;2023-04-19T09:38:18;101103.90;;;5.19;100.00
44663;BME280;30381;52.754;18.258;2023-04-19T09:40:48;101100.16;;;5.24;100.00
44663;BME280;30381;52.754;18.258;2023-04-19T09:43:24;101101.70;;;5.32;100.00
44663;BME280;30381;52.754;18.258;2023-04-19T09:45:51;101101.82;;;5.32;100.00
44663;BME280;30381;52.754;18.258;2023-04-19T09:48:24;101098.60;;;5.31;100.00
44663;BME280;30381;52.754;18.258;2023-04-19T09:50:58;101098.77;;;5.28;100.00
44663;BME280;30381;52.754;18.258;2023-04-19T09:53:27;101096.68;;;5.27;100.00
44663;BME280;30381;52.754;18.258;2023-04-19T09:55:55;101098.34;;;5.30;100.00
44663;BME280;30381;52.754;18.258;2023-04-19T09:58:27;101093.87;;;5.32;100.00
44663;BME280;30381;52.754;18.258;2023-04-19T10:00:55;101094.29;;;5.34;100.00
44663;BME280;30381;52.754;18.258;2023-04-19T10:03:28;101095.88;;;5.33;100.00
44663;BME280;30381;52.754;18.258;2023-04-19T10:05:58;101097.55;;;5.37;100.00
44663;BME280;30381;52.754;18.258;2023-04-19T10:08:26;101093.48;;;5.42;100.00
44663;BME280;30381;52.754;18.258;2023-04-19T10:10:54;101097.40;;;5.46;100.00
44663;BME280;30381;52.754;18.258;2023-04-19T10:16:50;101093.39;;;5.41;100.00
44663;BME280;30381;52.754;18.258;2023-04-19T10:19:21;101090.63;;;5.42;100.00
44663;BME280;30381;52.754;18.258;2023-04-19T10:21:51;101090.73;;;5.45;100.00
44663;BME280;30381;52.754;18.258;2023-04-19T10:24:17;101088.95;;;5.52;100.00
44663;BME280;30381;52.754;18.258;2023-04-19T10:27:08;101091.05;;;5.64;100.00
44663;BME280;30381;52.754;18.258;2023-04-19T10:30:01;101090.27;;;5.79;100.00
44663;BME280;30381;52.754;18.258;2023-04-19T10:32:55;101090.23;;;5.95;100.00
44663;BME280;30381;52.754;18.258;2023-04-19T10:35:38;101086.33;;;6.03;100.00
44663;BME280;30381;52.754;18.258;2023-04-19T10:38:41;101084.43;;;6.08;100.00
44663;BME280;30381;52.754;18.258;2023-04-19T10:41:57;101081.23;;;6.18;100.00
44663;BME280;30381;52.754;18.258;2023-04-19T10:44:27;101083.54;;;6.20;100.00
44663;BME280;30381;52.754;18.258;2023-04-19T10:47:13;101083.19;;;6.16;100.00
44663;BME280;30381;52.754;18.258;2023-04-19T10:50:06;101081.98;;;6.17;100.00
44663;BME280;30381;52.754;18.258;2023-04-19T10:52:40;101083.79;;;6.20;100.00
44663;BME280;30381;52.754;18.258;2023-04-19T10:55:18;101082.41;;;6.19;100.00
44663;BME280;30381;52.754;18.258;2023-04-19T10:58:14;101084.04;;;6.21;100.00
44663;BME280;30381;52.754;18.258;2023-04-19T11:05:04;101076.16;;;6.19;100.00
44663;BME280;30381;52.754;18.258;2023-04-19T11:07:47;101079.00;;;6.21;100.00
44663;BME280;30381;52.754;18.258;2023-04-19T11:10:31;101078.05;;;6.17;100.00
44663;BME280;30381;52.754;18.258;2023-04-19T11:13:08;101075.91;;;6.17;100.00
44663;BME280;30381;52.754;18.258;2023-04-19T11:16:47;101077.88;;;6.17;100.00
44663;BME280;30381;52.754;18.258;2023-04-19T11:19:16;101077.00;;;6.20;100.00
44663;BME280;30381;52.754;18.258;2023-04-19T11:22:51;101075.67;;;6.22;100.00
44663;BME280;30381;52.754;18.258;2023-04-19T11:25:51;101079.55;;;6.25;100.00
44663;BME280;30381;52.754;18.258;2023-04-19T11:28:45;101074.00;;;6.26;100.00
44663;BME280;30381;52.754;18.258;2023-04-19T11:32:06;101073.70;;;6.26;100.00
44663;BME280;30381;52.754;18.258;2023-04-19T11:35:03;101072.58;;;6.30;100.00
44663;BME280;30381;52.754;18.258;2023-04-19T11:37:35;101070.19;;;6.38;100.00
44663;BME280;30381;52.754;18.258;2023-04-19T11:40:24;101073.63;;;6.40;100.00
44663;BME280;30381;52.754;18.258;2023-04-19T11:42:57;101072.08;;;6.42;100.00
44663;BME280;30381;52.754;18.258;2023-04-19T11:45:30;101068.14;;;6.42;100.00
44663;BME280;30381;52.754;18.258;2023-04-19T11:47:58;101071.20;;;6.36;100.00
44663;BME280;30381;52.754;18.258;2023-04-19T11:50:51;101072.92;;;6.29;100.00
44663;BME280;30381;52.754;18.258;2023-04-19T11:53:24;101072.94;;;6.25;100.00
44663;BME280;30381;52.754;18.258;2023-04-19T11:55:55;101077.67;;;6.23;100.00
44663;BME280;30381;52.754;18.258;2023-04-19T11:58:43;101072.96;;;6.29;100.00
44663;BME280;30381;52.754;18.258;2023-04-19T12:01:20;101068.35;;;6.44;100.00
44663;BME280;30381;52.754;18.258;2023-04-19T12:03:52;101069.48;;;6.55;100.00
44663;BME280;30381;52.754;18.258;2023-04-19T12:07:19;101075.95;;;6.61;100.00
44663;BME280;30381;52.754;18.258;2023-04-19T12:10:09;101071.08;;;6.57;100.00
44663;BME280;30381;52.754;18.258;2023-04-19T12:13:00;101074.05;;;6.56;100.00
44663;BME280;30381;52.754;18.258;2023-04-19T12:15:53;101070.19;;;6.53;100.00
44663;BME280;30381;52.754;18.258;2023-04-19T12:18:49;101070.34;;;6.53;100.00
44663;BME280;30381;52.754;18.258;2023-04-19T12:22:10;101068.17;;;6.56;100.00
44663;BME280;30381;52.754;18.258;2023-04-19T12:25:02;101067.02;;;6.61;100.00
44663;BME280;30381;52.754;18.258;2023-04-19T12:27:43;101071.95;;;6.66;100.00
44663;BME280;30381;52.754;18.258;2023-04-19T12:30:19;101075.48;;;6.69;100.00
44663;BME280;30381;52.754;18.258;2023-04-19T12:32:51;101072.17;;;6.72;100.00
44663;BME280;30381;52.754;18.258;2023-04-19T12:35:53;101072.70;;;6.77;100.00
44663;BME280;30381;52.754;18.258;2023-04-19T12:41:23;101071.89;;;6.82;100.00
44663;BME280;30381;52.754;18.258;2023-04-19T12:43:59;101068.92;;;6.84;100.00
44663;BME280;30381;52.754;18.258;2023-04-19T12:46:26;101065.14;;;6.88;100.00
44663;BME280;30381;52.754;18.258;2023-04-19T12:49:32;101064.33;;;6.94;100.00
44663;BME280;30381;52.754;18.258;2023-04-19T12:52:21;101057.58;;;7.16;100.00
44663;BME280;30381;52.754;18.258;2023-04-19T12:55:26;101060.73;;;7.30;100.00
44663;BME280;30381;52.754;18.258;2023-04-19T12:57:53;101057.73;;;7.43;100.00
44663;BME280;30381;52.754;18.258;2023-04-19T13:00:38;101052.10;;;7.51;100.00
44663;BME280;30381;52.754;18.258;2023-04-19T13:03:20;101051.29;;;7.65;100.00
44663;BME280;30381;52.754;18.258;2023-04-19T13:06:08;101055.77;;;7.83;100.00
44663;BME280;30381;52.754;18.258;2023-04-19T13:08:37;101056.48;;;8.01;100.00
44663;BME280;30381;52.754;18.258;2023-04-19T13:11:13;101060.36;;;8.05;100.00
44663;BME280;30381;52.754;18.258;2023-04-19T13:13:49;101062.32;;;7.96;100.00
44663;BME280;30381;52.754;18.258;2023-04-19T13:16:30;101060.11;;;7.82;100.00
44663;BME280;30381;52.754;18.258;2023-04-19T13:18:57;101061.16;;;7.72;100.00
44663;BME280;30381;52.754;18.258;2023-04-19T13:21:26;101063.55;;;7.66;100.00
44663;BME280;30381;52.754;18.258;2023-04-19T13:23:56;101061.27;;;7.62;100.00
44663;BME280;30381;52.754;18.258;2023-04-19T13:26:30;101061.77;;;7.58;100.00
44663;BME280;30381;52.754;18.258;2023-04-19T13:29:01;101060.01;;;7.54;100.00
44663;BME280;30381;52.754;18.258;2023-04-19T13:31:28;101064.36;;;7.52;100.00
44663;BME280;30381;52.754;18.258;2023-04-19T13:34:15;101064.52;;;7.47;100.00
44663;BME280;30381;52.754;18.258;2023-04-19T13:36:52;101065.88;;;7.38;100.00
44663;BME280;30381;52.754;18.258;2023-04-19T13:39:22;101067.75;;;7.29;100.00
44663;BME280;30381;52.754;18.258;2023-04-19T13:41:52;101068.30;;;7.20;100.00
44663;BME280;30381;52.754;18.258;2023-04-19T13:44:19;101068.11;;;7.10;100.00
44663;BME280;30381;52.754;18.258;2023-04-19T13:46:45;101068.65;;;6.97;100.00
44663;BME280;30381;52.754;18.258;2023-04-19T20:43:37;101165.73;;;6.78;100.00
44663;BME280;30381;52.754;18.258;2023-04-19T20:49:43;101163.67;;;6.79;100.00
44663;BME280;30381;52.754;18.258;2023-04-19T20:53:01;101164.34;;;6.80;100.00
44663;BME280;30381;52.754;18.258;2023-04-19T21:01:42;101169.22;;;6.79;100.00
44663;BME280;30381;52.754;18.258;2023-04-19T21:10:08;101175.13;;;6.78;100.00
44663;BME280;30381;52.754;18.258;2023-04-19T21:13:05;101172.27;;;6.77;100.00
44663;BME280;30381;52.754;18.258;2023-04-19T21:15:37;101172.39;;;6.76;100.00
44663;BME280;30381;52.754;18.258;2023-04-19T21:26:51;101169.02;;;6.74;100.00
44663;BME280;30381;52.754;18.258;2023-04-19T21:32:31;101172.86;;;6.73;100.00
44663;BME280;30381;52.754;18.258;2023-04-19T21:35:32;101176.75;;;6.72;100.00
44663;BME280;30381;52.754;18.258;2023-04-19T21:41:39;101174.05;;;6.71;100.00
44663;BME280;30381;52.754;18.258;2023-04-19T21:47:26;101172.56;;;6.70;100.00
44663;BME280;30381;52.754;18.258;2023-04-19T21:50:38;101170.36;;;6.69;100.00
44663;BME280;30381;52.754;18.258;2023-04-19T21:56:23;101169.98;;;6.67;100.00
44663;BME280;30381;52.754;18.258;2023-04-19T21:59:37;101166.30;;;6.66;100.00
44663;BME280;30381;52.754;18.258;2023-04-19T22:03:07;101170.01;;;6.65;100.00
44663;BME280;30381;52.754;18.258;2023-04-19T22:06:53;101175.23;;;6.63;100.00
44663;BME280;30381;52.754;18.258;2023-04-19T22:10:20;101174.24;;;6.62;100.00
44663;BME280;30381;52.754;18.258;2023-04-19T22:13:28;101174.67;;;6.60;100.00